sensor_id;sensor_type;location;lat;lon;timestamp;P1;durP1;ratioP1;P2;durP2;ratioP2
22713;SDS011;11524;50.846;4.326;2022-11-14T00:01:32;29.83;;;18.70;;
22713;SDS011;11524;50.846;4.326;2022-11-14T00:03:58;29.45;;;17.48;;
22713;SDS011;11524;50.846;4.326;2022-11-14T00:06:24;30.95;;;18.98;;
22713;SDS011;11524;50.846;4.326;2022-11-14T00:08:49;31.48;;;18.55;;
22713;SDS011;11524;50.846;4.326;2022-11-14T00:11:15;32.63;;;18.50;;
22713;SDS011;11524;50.846;4.326;2022-11-14T00:13:40;29.75;;;18.40;;
22713;SDS011;11524;50.846;4.326;2022-11-14T00:16:06;29.08;;;18.98;;
22713;SDS011;11524;50.846;4.326;2022-11-14T00:18:31;28.85;;;18.60;;
22713;SDS011;11524;50.846;4.326;2022-11-14T00:20:57;30.88;;;18.55;;
22713;SDS011;11524;50.846;4.326;2022-11-14T00:23:22;31.13;;;18.02;;
22713;SDS011;11524;50.846;4.326;2022-11-14T00:25:48;30.42;;;17.95;;
22713;SDS011;11524;50.846;4.326;2022-11-14T00:28:14;31.05;;;18.17;;
22713;SDS011;11524;50.846;4.326;2022-11-14T00:30:39;28.83;;;17.70;;
22713;SDS011;11524;50.846;4.326;2022-11-14T00:33:05;29.38;;;17.85;;
22713;SDS011;11524;50.846;4.326;2022-11-14T00:35:31;27.23;;;16.60;;
22713;SDS011;11524;50.846;4.326;2022-11-14T00:37:56;27.58;;;16.45;;
22713;SDS011;11524;50.846;4.326;2022-11-14T00:40:22;27.60;;;17.00;;
22713;SDS011;11524;50.846;4.326;2022-11-14T00:42:47;24.42;;;16.85;;
22713;SDS011;11524;50.846;4.326;2022-11-14T00:45:13;27.02;;;16.80;;
22713;SDS011;11524;50.846;4.326;2022-11-14T00:47:39;31.25;;;17.27;;
22713;SDS011;11524;50.846;4.326;2022-11-14T00:50:04;28.50;;;17.25;;
22713;SDS011;11524;50.846;4.326;2022-11-14T00:52:30;26.35;;;17.48;;
22713;SDS011;11524;50.846;4.326;2022-11-14T00:54:56;28.10;;;17.52;;
22713;SDS011;11524;50.846;4.326;2022-11-14T00:57:21;26.85;;;17.10;;
22713;SDS011;11524;50.846;4.326;2022-11-14T00:59:47;25.25;;;16.83;;
22713;SDS011;11524;50.846;4.326;2022-11-14T01:02:13;27.38;;;17.15;;
22713;SDS011;11524;50.846;4.326;2022-11-14T01:04:38;27.30;;;16.65;;
22713;SDS011;11524;50.846;4.326;2022-11-14T01:07:04;25.02;;;16.58;;
22713;SDS011;11524;50.846;4.326;2022-11-14T01:09:29;25.50;;;16.27;;
22713;SDS011;11524;50.846;4.326;2022-11-14T01:11:55;24.50;;;16.30;;
22713;SDS011;11524;50.846;4.326;2022-11-14T01:14:20;24.25;;;16.38;;
22713;SDS011;11524;50.846;4.326;2022-11-14T01:16:46;25.05;;;15.73;;
22713;SDS011;11524;50.846;4.326;2022-11-14T01:19:12;23.67;;;16.15;;
22713;SDS011;11524;50.846;4.326;2022-11-14T01:21:37;25.70;;;16.95;;
22713;SDS011;11524;50.846;4.326;2022-11-14T01:24:03;24.98;;;15.85;;
22713;SDS011;11524;50.846;4.326;2022-11-14T01:26:29;24.60;;;15.80;;
22713;SDS011;11524;50.846;4.326;2022-11-14T01:28:54;27.13;;;16.55;;
22713;SDS011;11524;50.846;4.326;2022-11-14T01:31:21;24.10;;;15.65;;
22713;SDS011;11524;50.846;4.326;2022-11-14T01:33:49;25.58;;;15.60;;
22713;SDS011;11524;50.846;4.326;2022-11-14T01:36:15;22.38;;;15.52;;
22713;SDS011;11524;50.846;4.326;2022-11-14T01:38:42;24.55;;;15.82;;
22713;SDS011;11524;50.846;4.326;2022-11-14T01:41:08;26.33;;;15.45;;
22713;SDS011;11524;50.846;4.326;2022-11-14T01:43:37;22.73;;;15.30;;
22713;SDS011;11524;50.846;4.326;2022-11-14T01:46:04;26.60;;;15.73;;
22713;SDS011;11524;50.846;4.326;2022-11-14T01:48:47;23.73;;;15.45;;
22713;SDS011;11524;50.846;4.326;2022-11-14T01:51:38;22.93;;;14.87;;
22713;SDS011;11524;50.846;4.326;2022-11-14T01:54:02;24.90;;;15.25;;
22713;SDS011;11524;50.846;4.326;2022-11-14T01:56:34;22.70;;;15.10;;
22713;SDS011;11524;50.846;4.326;2022-11-14T01:59:05;25.75;;;15.93;;
22713;SDS011;11524;50.846;4.326;2022-11-14T02:01:33;24.63;;;15.70;;
22713;SDS011;11524;50.846;4.326;2022-11-14T02:04:02;23.05;;;15.80;;
22713;SDS011;11524;50.846;4.326;2022-11-14T02:06:30;21.27;;;15.27;;
22713;SDS011;11524;50.846;4.326;2022-11-14T02:08:56;21.13;;;14.80;;
22713;SDS011;11524;50.846;4.326;2022-11-14T02:11:27;21.67;;;15.32;;
22713;SDS011;11524;50.846;4.326;2022-11-14T02:13:55;23.30;;;15.15;;
22713;SDS011;11524;50.846;4.326;2022-11-14T02:16:23;23.98;;;15.20;;
22713;SDS011;11524;50.846;4.326;2022-11-14T02:18:49;20.83;;;14.95;;
22713;SDS011;11524;50.846;4.326;2022-11-14T02:21:15;21.33;;;14.63;;
22713;SDS011;11524;50.846;4.326;2022-11-14T02:23:40;20.63;;;14.95;;
22713;SDS011;11524;50.846;4.326;2022-11-14T02:26:06;19.85;;;14.13;;
22713;SDS011;11524;50.846;4.326;2022-11-14T02:28:31;22.63;;;14.85;;
22713;SDS011;11524;50.846;4.326;2022-11-14T02:30:57;20.45;;;14.18;;
22713;SDS011;11524;50.846;4.326;2022-11-14T02:33:22;23.58;;;15.10;;
22713;SDS011;11524;50.846;4.326;2022-11-14T02:35:48;23.05;;;14.35;;
22713;SDS011;11524;50.846;4.326;2022-11-14T02:38:14;22.90;;;14.60;;
22713;SDS011;11524;50.846;4.326;2022-11-14T02:40:39;20.80;;;14.23;;
22713;SDS011;11524;50.846;4.326;2022-11-14T02:43:05;19.92;;;14.02;;
22713;SDS011;11524;50.846;4.326;2022-11-14T02:45:30;23.30;;;14.55;;
22713;SDS011;11524;50.846;4.326;2022-11-14T02:47:56;18.05;;;13.23;;
22713;SDS011;11524;50.846;4.326;2022-11-14T02:50:22;20.88;;;13.55;;
22713;SDS011;11524;50.846;4.326;2022-11-14T02:52:47;20.15;;;13.90;;
22713;SDS011;11524;50.846;4.326;2022-11-14T02:55:13;17.05;;;13.52;;
22713;SDS011;11524;50.846;4.326;2022-11-14T02:57:39;19.48;;;13.93;;
22713;SDS011;11524;50.846;4.326;2022-11-14T03:00:04;19.38;;;13.98;;
22713;SDS011;11524;50.846;4.326;2022-11-14T03:02:30;20.90;;;13.45;;
22713;SDS011;11524;50.846;4.326;2022-11-14T03:04:56;18.63;;;13.20;;
22713;SDS011;11524;50.846;4.326;2022-11-14T03:07:22;18.85;;;13.20;;
22713;SDS011;11524;50.846;4.326;2022-11-14T03:09:47;18.40;;;12.88;;
22713;SDS011;11524;50.846;4.326;2022-11-14T03:12:16;19.38;;;13.70;;
22713;SDS011;11524;50.846;4.326;2022-11-14T03:14:43;17.42;;;12.98;;
22713;SDS011;11524;50.846;4.326;2022-11-14T03:17:08;19.92;;;13.65;;
22713;SDS011;11524;50.846;4.326;2022-11-14T03:19:34;17.98;;;12.68;;
22713;SDS011;11524;50.846;4.326;2022-11-14T03:22:00;17.80;;;13.05;;
22713;SDS011;11524;50.846;4.326;2022-11-14T03:24:25;19.45;;;12.95;;
22713;SDS011;11524;50.846;4.326;2022-11-14T03:26:51;16.77;;;12.70;;
22713;SDS011;11524;50.846;4.326;2022-11-14T03:29:17;17.40;;;12.52;;
22713;SDS011;11524;50.846;4.326;2022-11-14T03:31:42;18.20;;;12.85;;
22713;SDS011;11524;50.846;4.326;2022-11-14T03:34:08;17.38;;;12.25;;
22713;SDS011;11524;50.846;4.326;2022-11-14T03:36:35;17.13;;;12.15;;
22713;SDS011;11524;50.846;4.326;2022-11-14T03:39:01;19.77;;;13.15;;
22713;SDS011;11524;50.846;4.326;2022-11-14T03:41:27;18.65;;;12.52;;
22713;SDS011;11524;50.846;4.326;2022-11-14T03:43:53;16.85;;;12.35;;
22713;SDS011;11524;50.846;4.326;2022-11-14T03:46:19;18.30;;;12.38;;
22713;SDS011;11524;50.846;4.326;2022-11-14T03:48:44;17.02;;;12.05;;
22713;SDS011;11524;50.846;4.326;2022-11-14T03:51:10;17.88;;;12.07;;
22713;SDS011;11524;50.846;4.326;2022-11-14T03:53:36;17.23;;;11.95;;
22713;SDS011;11524;50.846;4.326;2022-11-14T03:56:01;14.85;;;11.13;;
22713;SDS011;11524;50.846;4.326;2022-11-14T03:58:27;16.88;;;11.48;;
22713;SDS011;11524;50.846;4.326;2022-11-14T04:00:52;16.98;;;12.70;;
22713;SDS011;11524;50.846;4.326;2022-11-14T04:03:20;15.40;;;11.80;;
22713;SDS011;11524;50.846;4.326;2022-11-14T04:05:46;15.20;;;12.35;;
22713;SDS011;11524;50.846;4.326;2022-11-14T04:08:11;16.63;;;10.98;;
22713;SDS011;11524;50.846;4.326;2022-11-14T04:10:37;15.77;;;11.65;;
22713;SDS011;11524;50.846;4.326;2022-11-14T04:13:03;15.50;;;11.73;;
22713;SDS011;11524;50.846;4.326;2022-11-14T04:15:29;14.55;;;11.38;;
22713;SDS011;11524;50.846;4.326;2022-11-14T04:17:54;15.85;;;11.25;;
22713;SDS011;11524;50.846;4.326;2022-11-14T04:20:20;14.68;;;10.85;;
22713;SDS011;11524;50.846;4.326;2022-11-14T04:22:46;13.77;;;11.05;;
22713;SDS011;11524;50.846;4.326;2022-11-14T04:25:11;14.30;;;11.20;;
22713;SDS011;11524;50.846;4.326;2022-11-14T04:27:37;14.02;;;11.18;;
22713;SDS011;11524;50.846;4.326;2022-11-14T04:30:03;16.08;;;11.32;;
22713;SDS011;11524;50.846;4.326;2022-11-14T04:32:29;15.25;;;10.77;;
22713;SDS011;11524;50.846;4.326;2022-11-14T04:34:55;16.17;;;11.00;;
22713;SDS011;11524;50.846;4.326;2022-11-14T04:37:21;14.85;;;10.27;;
22713;SDS011;11524;50.846;4.326;2022-11-14T04:39:46;16.70;;;11.60;;
22713;SDS011;11524;50.846;4.326;2022-11-14T04:42:12;14.82;;;11.40;;
22713;SDS011;11524;50.846;4.326;2022-11-14T04:44:38;15.20;;;11.07;;
22713;SDS011;11524;50.846;4.326;2022-11-14T04:47:03;13.70;;;10.82;;
22713;SDS011;11524;50.846;4.326;2022-11-14T04:49:29;15.40;;;11.23;;
22713;SDS011;11524;50.846;4.326;2022-11-14T04:51:54;13.70;;;11.00;;
22713;SDS011;11524;50.846;4.326;2022-11-14T04:54:20;14.40;;;10.25;;
22713;SDS011;11524;50.846;4.326;2022-11-14T04:56:46;15.18;;;10.90;;
22713;SDS011;11524;50.846;4.326;2022-11-14T04:59:12;14.10;;;10.90;;
22713;SDS011;11524;50.846;4.326;2022-11-14T05:01:39;13.15;;;10.20;;
22713;SDS011;11524;50.846;4.326;2022-11-14T05:04:04;12.25;;;10.20;;
22713;SDS011;11524;50.846;4.326;2022-11-14T05:06:30;12.88;;;10.50;;
22713;SDS011;11524;50.846;4.326;2022-11-14T05:08:56;13.48;;;10.55;;
22713;SDS011;11524;50.846;4.326;2022-11-14T05:11:21;13.77;;;10.43;;
22713;SDS011;11524;50.846;4.326;2022-11-14T05:13:47;15.60;;;10.40;;
22713;SDS011;11524;50.846;4.326;2022-11-14T05:16:13;12.95;;;10.93;;
22713;SDS011;11524;50.846;4.326;2022-11-14T05:18:38;12.88;;;10.07;;
22713;SDS011;11524;50.846;4.326;2022-11-14T05:21:04;14.27;;;10.98;;
22713;SDS011;11524;50.846;4.326;2022-11-14T05:23:30;13.80;;;10.25;;
22713;SDS011;11524;50.846;4.326;2022-11-14T05:28:24;12.55;;;9.98;;
22713;SDS011;11524;50.846;4.326;2022-11-14T05:30:50;12.18;;;8.80;;
22713;SDS011;11524;50.846;4.326;2022-11-14T05:33:16;13.15;;;10.63;;
22713;SDS011;11524;50.846;4.326;2022-11-14T05:35:41;12.27;;;9.68;;
22713;SDS011;11524;50.846;4.326;2022-11-14T05:38:07;12.50;;;9.48;;
22713;SDS011;11524;50.846;4.326;2022-11-14T05:40:32;11.95;;;9.70;;
22713;SDS011;11524;50.846;4.326;2022-11-14T05:42:58;12.93;;;9.02;;
22713;SDS011;11524;50.846;4.326;2022-11-14T05:45:24;10.57;;;9.13;;
22713;SDS011;11524;50.846;4.326;2022-11-14T05:47:50;11.95;;;9.13;;
22713;SDS011;11524;50.846;4.326;2022-11-14T05:50:18;12.45;;;9.43;;
22713;SDS011;11524;50.846;4.326;2022-11-14T05:52:43;14.20;;;9.85;;
22713;SDS011;11524;50.846;4.326;2022-11-14T05:55:09;14.60;;;9.77;;
22713;SDS011;11524;50.846;4.326;2022-11-14T05:57:34;10.95;;;8.82;;
22713;SDS011;11524;50.846;4.326;2022-11-14T06:00:00;11.60;;;9.27;;
22713;SDS011;11524;50.846;4.326;2022-11-14T06:02:27;14.85;;;9.65;;
22713;SDS011;11524;50.846;4.326;2022-11-14T06:04:53;12.30;;;9.38;;
22713;SDS011;11524;50.846;4.326;2022-11-14T06:07:19;13.50;;;9.18;;
22713;SDS011;11524;50.846;4.326;2022-11-14T06:09:44;14.48;;;9.48;;
22713;SDS011;11524;50.846;4.326;2022-11-14T06:12:10;12.30;;;9.30;;
22713;SDS011;11524;50.846;4.326;2022-11-14T06:14:35;10.75;;;8.88;;
22713;SDS011;11524;50.846;4.326;2022-11-14T06:17:01;12.13;;;8.75;;
22713;SDS011;11524;50.846;4.326;2022-11-14T06:19:26;13.00;;;8.15;;
22713;SDS011;11524;50.846;4.326;2022-11-14T06:21:52;13.63;;;9.02;;
22713;SDS011;11524;50.846;4.326;2022-11-14T06:24:18;12.52;;;8.75;;
22713;SDS011;11524;50.846;4.326;2022-11-14T06:26:43;11.10;;;8.52;;
22713;SDS011;11524;50.846;4.326;2022-11-14T06:29:09;13.30;;;9.02;;
22713;SDS011;11524;50.846;4.326;2022-11-14T06:31:35;11.07;;;8.55;;
22713;SDS011;11524;50.846;4.326;2022-11-14T06:34:00;13.80;;;8.45;;
22713;SDS011;11524;50.846;4.326;2022-11-14T06:36:28;15.30;;;8.52;;
22713;SDS011;11524;50.846;4.326;2022-11-14T06:38:54;15.20;;;8.90;;
22713;SDS011;11524;50.846;4.326;2022-11-14T06:41:20;17.02;;;8.38;;
22713;SDS011;11524;50.846;4.326;2022-11-14T06:43:47;12.27;;;7.88;;
22713;SDS011;11524;50.846;4.326;2022-11-14T06:46:15;12.77;;;8.45;;
22713;SDS011;11524;50.846;4.326;2022-11-14T06:48:42;11.55;;;8.70;;
22713;SDS011;11524;50.846;4.326;2022-11-14T06:51:09;10.02;;;8.20;;
22713;SDS011;11524;50.846;4.326;2022-11-14T06:53:36;11.60;;;8.55;;
22713;SDS011;11524;50.846;4.326;2022-11-14T06:56:09;19.63;;;7.72;;
22713;SDS011;11524;50.846;4.326;2022-11-14T06:58:40;11.32;;;7.93;;
22713;SDS011;11524;50.846;4.326;2022-11-14T07:01:12;11.88;;;7.95;;
22713;SDS011;11524;50.846;4.326;2022-11-14T07:03:39;11.15;;;8.25;;
22713;SDS011;11524;50.846;4.326;2022-11-14T07:06:05;10.88;;;7.90;;
22713;SDS011;11524;50.846;4.326;2022-11-14T07:08:31;13.10;;;8.55;;
22713;SDS011;11524;50.846;4.326;2022-11-14T07:11:04;10.65;;;7.75;;
22713;SDS011;11524;50.846;4.326;2022-11-14T07:13:33;13.15;;;7.88;;
22713;SDS011;11524;50.846;4.326;2022-11-14T07:15:59;11.57;;;8.13;;
22713;SDS011;11524;50.846;4.326;2022-11-14T07:18:38;9.98;;;7.38;;
22713;SDS011;11524;50.846;4.326;2022-11-14T07:21:04;11.13;;;8.05;;
22713;SDS011;11524;50.846;4.326;2022-11-14T07:23:31;10.77;;;8.15;;
22713;SDS011;11524;50.846;4.326;2022-11-14T07:26:00;14.35;;;8.15;;
22713;SDS011;11524;50.846;4.326;2022-11-14T07:28:27;10.80;;;6.65;;
22713;SDS011;11524;50.846;4.326;2022-11-14T07:30:52;9.70;;;6.20;;
22713;SDS011;11524;50.846;4.326;2022-11-14T07:33:18;8.00;;;6.38;;
22713;SDS011;11524;50.846;4.326;2022-11-14T07:35:44;10.68;;;6.50;;
22713;SDS011;11524;50.846;4.326;2022-11-14T07:38:09;10.30;;;7.90;;
22713;SDS011;11524;50.846;4.326;2022-11-14T07:40:35;13.07;;;7.22;;
22713;SDS011;11524;50.846;4.326;2022-11-14T07:43:01;10.07;;;7.68;;
22713;SDS011;11524;50.846;4.326;2022-11-14T07:45:27;9.65;;;7.88;;
22713;SDS011;11524;50.846;4.326;2022-11-14T07:47:54;11.88;;;8.35;;
22713;SDS011;11524;50.846;4.326;2022-11-14T07:50:24;14.15;;;8.73;;
22713;SDS011;11524;50.846;4.326;2022-11-14T07:52:51;11.68;;;7.95;;
22713;SDS011;11524;50.846;4.326;2022-11-14T07:55:18;13.98;;;8.48;;
22713;SDS011;11524;50.846;4.326;2022-11-14T07:57:44;10.05;;;7.88;;
22713;SDS011;11524;50.846;4.326;2022-11-14T08:00:10;12.48;;;7.57;;
22713;SDS011;11524;50.846;4.326;2022-11-14T08:02:36;11.55;;;8.38;;
22713;SDS011;11524;50.846;4.326;2022-11-14T08:05:02;11.65;;;7.35;;
22713;SDS011;11524;50.846;4.326;2022-11-14T08:07:28;12.85;;;7.72;;
22713;SDS011;11524;50.846;4.326;2022-11-14T08:09:54;10.57;;;7.78;;
22713;SDS011;11524;50.846;4.326;2022-11-14T08:12:19;12.35;;;7.25;;
22713;SDS011;11524;50.846;4.326;2022-11-14T08:14:45;13.18;;;8.88;;
22713;SDS011;11524;50.846;4.326;2022-11-14T08:17:10;12.10;;;7.07;;
22713;SDS011;11524;50.846;4.326;2022-11-14T08:19:36;10.80;;;7.53;;
22713;SDS011;11524;50.846;4.326;2022-11-14T08:22:02;13.88;;;7.95;;
22713;SDS011;11524;50.846;4.326;2022-11-14T08:24:36;14.50;;;7.70;;
22713;SDS011;11524;50.846;4.326;2022-11-14T08:27:02;10.88;;;7.97;;
22713;SDS011;11524;50.846;4.326;2022-11-14T08:29:27;12.65;;;8.18;;
22713;SDS011;11524;50.846;4.326;2022-11-14T08:31:53;14.27;;;7.07;;
22713;SDS011;11524;50.846;4.326;2022-11-14T08:34:19;10.35;;;7.60;;
22713;SDS011;11524;50.846;4.326;2022-11-14T08:36:46;10.13;;;6.78;;
22713;SDS011;11524;50.846;4.326;2022-11-14T08:39:12;11.82;;;7.57;;
22713;SDS011;11524;50.846;4.326;2022-11-14T08:41:37;9.55;;;7.38;;
22713;SDS011;11524;50.846;4.326;2022-11-14T08:44:03;12.05;;;7.30;;
22713;SDS011;11524;50.846;4.326;2022-11-14T08:46:29;10.77;;;6.60;;
22713;SDS011;11524;50.846;4.326;2022-11-14T08:48:54;9.65;;;7.32;;
22713;SDS011;11524;50.846;4.326;2022-11-14T08:51:20;9.38;;;6.65;;
22713;SDS011;11524;50.846;4.326;2022-11-14T08:53:45;9.73;;;6.75;;
22713;SDS011;11524;50.846;4.326;2022-11-14T08:56:11;10.70;;;6.88;;
22713;SDS011;11524;50.846;4.326;2022-11-14T08:58:37;10.68;;;6.78;;
22713;SDS011;11524;50.846;4.326;2022-11-14T09:01:04;10.65;;;6.97;;
22713;SDS011;11524;50.846;4.326;2022-11-14T09:03:31;10.25;;;7.40;;
22713;SDS011;11524;50.846;4.326;2022-11-14T09:05:57;9.80;;;6.50;;
22713;SDS011;11524;50.846;4.326;2022-11-14T09:08:23;9.93;;;7.03;;
22713;SDS011;11524;50.846;4.326;2022-11-14T09:10:49;10.38;;;6.85;;
22713;SDS011;11524;50.846;4.326;2022-11-14T09:13:14;10.15;;;6.68;;
22713;SDS011;11524;50.846;4.326;2022-11-14T09:15:40;10.27;;;6.72;;
22713;SDS011;11524;50.846;4.326;2022-11-14T09:18:07;11.30;;;6.68;;
22713;SDS011;11524;50.846;4.326;2022-11-14T09:20:35;10.75;;;6.82;;
22713;SDS011;11524;50.846;4.326;2022-11-14T09:23:01;11.55;;;6.65;;
22713;SDS011;11524;50.846;4.326;2022-11-14T09:25:28;9.95;;;6.55;;
22713;SDS011;11524;50.846;4.326;2022-11-14T09:27:55;12.43;;;6.90;;
22713;SDS011;11524;50.846;4.326;2022-11-14T09:30:21;11.50;;;6.90;;
22713;SDS011;11524;50.846;4.326;2022-11-14T09:32:47;10.50;;;7.18;;
22713;SDS011;11524;50.846;4.326;2022-11-14T09:35:13;10.20;;;6.72;;
22713;SDS011;11524;50.846;4.326;2022-11-14T09:37:39;11.93;;;7.30;;
22713;SDS011;11524;50.846;4.326;2022-11-14T09:40:05;11.30;;;7.05;;
22713;SDS011;11524;50.846;4.326;2022-11-14T09:45:15;9.43;;;7.22;;
22713;SDS011;11524;50.846;4.326;2022-11-14T09:47:48;10.60;;;7.03;;
22713;SDS011;11524;50.846;4.326;2022-11-14T09:50:19;10.27;;;6.65;;
22713;SDS011;11524;50.846;4.326;2022-11-14T09:52:54;10.98;;;6.93;;
22713;SDS011;11524;50.846;4.326;2022-11-14T09:55:23;12.48;;;7.70;;
22713;SDS011;11524;50.846;4.326;2022-11-14T09:57:52;13.75;;;6.82;;
22713;SDS011;11524;50.846;4.326;2022-11-14T10:00:20;14.13;;;8.00;;
22713;SDS011;11524;50.846;4.326;2022-11-14T10:05:43;13.77;;;6.97;;
22713;SDS011;11524;50.846;4.326;2022-11-14T10:08:28;11.80;;;7.78;;
22713;SDS011;11524;50.846;4.326;2022-11-14T10:11:28;10.70;;;7.40;;
22713;SDS011;11524;50.846;4.326;2022-11-14T10:14:21;11.18;;;7.13;;
22713;SDS011;11524;50.846;4.326;2022-11-14T10:25:18;9.85;;;6.82;;
22713;SDS011;11524;50.846;4.326;2022-11-14T10:30:18;11.95;;;6.88;;
22713;SDS011;11524;50.846;4.326;2022-11-14T10:35:20;10.68;;;6.28;;
22713;SDS011;11524;50.846;4.326;2022-11-14T10:40:24;10.85;;;7.03;;
22713;SDS011;11524;50.846;4.326;2022-11-14T10:42:56;10.50;;;7.18;;
22713;SDS011;11524;50.846;4.326;2022-11-14T10:45:36;8.38;;;6.10;;
22713;SDS011;11524;50.846;4.326;2022-11-14T10:48:08;9.85;;;6.32;;
22713;SDS011;11524;50.846;4.326;2022-11-14T10:53:13;11.23;;;7.07;;
22713;SDS011;11524;50.846;4.326;2022-11-14T10:56:07;10.05;;;5.40;;
22713;SDS011;11524;50.846;4.326;2022-11-14T10:58:38;11.00;;;5.95;;
22713;SDS011;11524;50.846;4.326;2022-11-14T11:03:56;8.80;;;5.82;;
22713;SDS011;11524;50.846;4.326;2022-11-14T11:06:26;9.82;;;7.93;;
22713;SDS011;11524;50.846;4.326;2022-11-14T11:08:52;9.02;;;6.90;;
22713;SDS011;11524;50.846;4.326;2022-11-14T11:11:39;10.32;;;7.85;;
22713;SDS011;11524;50.846;4.326;2022-11-14T11:14:08;12.05;;;7.57;;
22713;SDS011;11524;50.846;4.326;2022-11-14T11:16:41;11.32;;;7.35;;
22713;SDS011;11524;50.846;4.326;2022-11-14T11:21:49;9.68;;;6.78;;
22713;SDS011;11524;50.846;4.326;2022-11-14T11:24:29;9.55;;;7.15;;
22713;SDS011;11524;50.846;4.326;2022-11-14T11:27:12;10.25;;;7.55;;
22713;SDS011;11524;50.846;4.326;2022-11-14T11:29:45;10.65;;;6.55;;
22713;SDS011;11524;50.846;4.326;2022-11-14T11:32:11;9.55;;;7.30;;
22713;SDS011;11524;50.846;4.326;2022-11-14T11:34:50;13.20;;;7.57;;
22713;SDS011;11524;50.846;4.326;2022-11-14T11:37:32;9.02;;;7.25;;
22713;SDS011;11524;50.846;4.326;2022-11-14T11:40:05;8.88;;;7.30;;
22713;SDS011;11524;50.846;4.326;2022-11-14T11:45:35;8.80;;;6.80;;
22713;SDS011;11524;50.846;4.326;2022-11-14T11:50:46;11.88;;;7.45;;
22713;SDS011;11524;50.846;4.326;2022-11-14T11:53:27;13.82;;;7.13;;
22713;SDS011;11524;50.846;4.326;2022-11-14T11:56:03;10.18;;;8.15;;
22713;SDS011;11524;50.846;4.326;2022-11-14T11:58:40;12.88;;;8.13;;
22713;SDS011;11524;50.846;4.326;2022-11-14T12:01:10;10.02;;;7.85;;
22713;SDS011;11524;50.846;4.326;2022-11-14T12:03:36;12.05;;;8.25;;
22713;SDS011;11524;50.846;4.326;2022-11-14T12:06:16;11.05;;;7.40;;
22713;SDS011;11524;50.846;4.326;2022-11-14T12:09:04;10.05;;;6.72;;
22713;SDS011;11524;50.846;4.326;2022-11-14T12:19:11;12.80;;;8.10;;
22713;SDS011;11524;50.846;4.326;2022-11-14T12:21:51;18.95;;;8.00;;
22713;SDS011;11524;50.846;4.326;2022-11-14T12:30:12;12.50;;;7.88;;
22713;SDS011;11524;50.846;4.326;2022-11-14T12:32:50;9.40;;;7.45;;
22713;SDS011;11524;50.846;4.326;2022-11-14T12:35:34;8.68;;;5.72;;
22713;SDS011;11524;50.846;4.326;2022-11-14T12:38:02;11.73;;;8.18;;
22713;SDS011;11524;50.846;4.326;2022-11-14T12:42:56;12.90;;;8.82;;
22713;SDS011;11524;50.846;4.326;2022-11-14T12:48:20;13.75;;;8.80;;
22713;SDS011;11524;50.846;4.326;2022-11-14T12:50:50;10.73;;;8.43;;
22713;SDS011;11524;50.846;4.326;2022-11-14T13:01:55;9.65;;;7.65;;
22713;SDS011;11524;50.846;4.326;2022-11-14T13:10:34;10.68;;;8.05;;
22713;SDS011;11524;50.846;4.326;2022-11-14T13:13:06;13.77;;;9.88;;
22713;SDS011;11524;50.846;4.326;2022-11-14T13:15:52;11.30;;;9.07;;
22713;SDS011;11524;50.846;4.326;2022-11-14T13:18:54;14.98;;;9.93;;
22713;SDS011;11524;50.846;4.326;2022-11-14T13:25:20;14.80;;;9.85;;
22713;SDS011;11524;50.846;4.326;2022-11-14T13:27:26;11.45;;;9.93;;
22713;SDS011;11524;50.846;4.326;2022-11-14T13:29:53;13.70;;;10.63;;
22713;SDS011;11524;50.846;4.326;2022-11-14T13:33:02;15.63;;;11.30;;
22713;SDS011;11524;50.846;4.326;2022-11-14T13:35:14;12.45;;;9.75;;
22713;SDS011;11524;50.846;4.326;2022-11-14T13:42:58;13.98;;;11.48;;
22713;SDS011;11524;50.846;4.326;2022-11-14T13:45:56;15.85;;;10.32;;
22713;SDS011;11524;50.846;4.326;2022-11-14T13:48:35;14.25;;;10.30;;
22713;SDS011;11524;50.846;4.326;2022-11-14T13:51:25;13.38;;;9.55;;
22713;SDS011;11524;50.846;4.326;2022-11-14T13:53:52;13.75;;;10.27;;
22713;SDS011;11524;50.846;4.326;2022-11-14T13:56:42;14.48;;;10.63;;
22713;SDS011;11524;50.846;4.326;2022-11-14T13:59:31;11.10;;;9.85;;
22713;SDS011;11524;50.846;4.326;2022-11-14T14:10:36;11.85;;;8.10;;
22713;SDS011;11524;50.846;4.326;2022-11-14T14:13:21;10.38;;;8.75;;
22713;SDS011;11524;50.846;4.326;2022-11-14T14:16:10;11.45;;;9.05;;
22713;SDS011;11524;50.846;4.326;2022-11-14T14:27:34;11.15;;;9.18;;
22713;SDS011;11524;50.846;4.326;2022-11-14T14:30:10;10.10;;;8.45;;
22713;SDS011;11524;50.846;4.326;2022-11-14T14:32:38;9.68;;;8.50;;
22713;SDS011;11524;50.846;4.326;2022-11-14T14:37:53;11.02;;;8.70;;
22713;SDS011;11524;50.846;4.326;2022-11-14T14:42:53;9.63;;;8.23;;
22713;SDS011;11524;50.846;4.326;2022-11-14T14:45:21;10.95;;;8.63;;
22713;SDS011;11524;50.846;4.326;2022-11-14T14:47:49;10.75;;;7.80;;
22713;SDS011;11524;50.846;4.326;2022-11-14T14:50:32;9.48;;;8.10;;
22713;SDS011;11524;50.846;4.326;2022-11-14T14:53:00;9.65;;;7.90;;
22713;SDS011;11524;50.846;4.326;2022-11-14T14:55:30;10.25;;;7.47;;
22713;SDS011;11524;50.846;4.326;2022-11-14T15:03:20;8.90;;;7.00;;
22713;SDS011;11524;50.846;4.326;2022-11-14T15:05:47;9.98;;;7.97;;
22713;SDS011;11524;50.846;4.326;2022-11-14T15:08:20;9.52;;;7.70;;
22713;SDS011;11524;50.846;4.326;2022-11-14T15:10:46;8.32;;;7.43;;
22713;SDS011;11524;50.846;4.326;2022-11-14T15:13:13;8.68;;;7.03;;
22713;SDS011;11524;50.846;4.326;2022-11-14T15:15:41;14.40;;;6.57;;
22713;SDS011;11524;50.846;4.326;2022-11-14T15:18:12;10.82;;;7.85;;
22713;SDS011;11524;50.846;4.326;2022-11-14T15:20:44;10.20;;;7.20;;
22713;SDS011;11524;50.846;4.326;2022-11-14T15:23:33;8.90;;;6.65;;
22713;SDS011;11524;50.846;4.326;2022-11-14T15:26:01;11.48;;;7.30;;
22713;SDS011;11524;50.846;4.326;2022-11-14T15:28:28;9.55;;;7.90;;
22713;SDS011;11524;50.846;4.326;2022-11-14T15:30:55;9.98;;;7.43;;
22713;SDS011;11524;50.846;4.326;2022-11-14T15:33:25;10.50;;;6.80;;
22713;SDS011;11524;50.846;4.326;2022-11-14T15:38:57;7.88;;;6.65;;
22713;SDS011;11524;50.846;4.326;2022-11-14T15:41:29;8.18;;;6.68;;
22713;SDS011;11524;50.846;4.326;2022-11-14T15:43:56;8.95;;;6.80;;
22713;SDS011;11524;50.846;4.326;2022-11-14T15:48:58;8.60;;;6.55;;
22713;SDS011;11524;50.846;4.326;2022-11-14T15:57:00;7.63;;;5.97;;
22713;SDS011;11524;50.846;4.326;2022-11-14T15:59:35;8.95;;;5.82;;
22713;SDS011;11524;50.846;4.326;2022-11-14T16:02:03;6.38;;;5.50;;
22713;SDS011;11524;50.846;4.326;2022-11-14T16:04:40;7.47;;;5.35;;
22713;SDS011;11524;50.846;4.326;2022-11-14T16:07:08;8.63;;;6.22;;
22713;SDS011;11524;50.846;4.326;2022-11-14T16:09:38;7.40;;;5.57;;
22713;SDS011;11524;50.846;4.326;2022-11-14T16:12:04;8.73;;;5.53;;
22713;SDS011;11524;50.846;4.326;2022-11-14T16:14:30;8.48;;;5.65;;
22713;SDS011;11524;50.846;4.326;2022-11-14T16:16:56;7.97;;;5.47;;
22713;SDS011;11524;50.846;4.326;2022-11-14T16:19:22;5.97;;;5.13;;
22713;SDS011;11524;50.846;4.326;2022-11-14T16:21:50;5.70;;;5.10;;
22713;SDS011;11524;50.846;4.326;2022-11-14T16:24:17;7.50;;;5.30;;
22713;SDS011;11524;50.846;4.326;2022-11-14T16:26:44;7.47;;;5.35;;
22713;SDS011;11524;50.846;4.326;2022-11-14T16:29:10;7.55;;;5.47;;
22713;SDS011;11524;50.846;4.326;2022-11-14T16:31:36;7.50;;;5.30;;
22713;SDS011;11524;50.846;4.326;2022-11-14T16:34:02;7.57;;;5.85;;
22713;SDS011;11524;50.846;4.326;2022-11-14T16:36:28;7.10;;;6.00;;
22713;SDS011;11524;50.846;4.326;2022-11-14T16:38:57;8.25;;;6.10;;